createdAt,value
2023-02-09T01:07:26.897Z,93.13
2023-02-09T01:08:27.908Z,93.13
2023-02-09T01:09:27.909Z,93.24
2023-02-09T01:10:28.379Z,92.92
2023-02-09T01:11:27.872Z,93.93
2023-02-09T01:12:27.866Z,94.04
2023-02-09T01:13:27.854Z,93.77
2023-02-09T01:14:27.855Z,93.30
2023-02-09T01:15:28.378Z,92.88
2023-02-09T01:16:27.865Z,92.49
2023-02-09T01:17:27.826Z,92.71
2023-02-09T01:18:27.835Z,93.02
2023-02-09T01:19:27.809Z,93.24
2023-02-09T01:20:27.808Z,92.64
2023-02-09T01:21:27.796Z,92.64
2023-02-09T01:22:27.788Z,92.29
2023-02-09T01:23:27.771Z,92.75
2023-02-09T01:24:27.769Z,93.49
2023-02-09T01:25:27.770Z,93.44
2023-02-09T01:26:27.753Z,92.60
2023-02-09T01:27:27.759Z,92.75
2023-02-09T01:28:28.480Z,92.85
2023-02-09T01:29:27.728Z,93.38
2023-02-09T01:30:27.759Z,92.96
2023-02-09T01:31:27.789Z,93.28
2023-02-09T01:32:28.456Z,93.55
2023-02-09T01:33:27.708Z,93.55
2023-02-09T01:34:27.716Z,93.77
2023-02-09T01:35:27.686Z,93.34
2023-02-09T01:36:27.687Z,93.02
2023-02-09T01:37:27.664Z,93.28
2023-02-09T01:38:28.453Z,92.43
2023-02-09T01:39:27.701Z,92.85
2023-02-09T01:40:27.655Z,92.96
2023-02-09T01:41:27.637Z,92.85
2023-02-09T01:42:27.636Z,92.75
2023-02-09T01:43:27.620Z,92.22
2023-02-09T01:44:27.615Z,92.26
2023-02-09T01:45:27.623Z,92.36
2023-02-09T01:46:27.650Z,92.58
2023-02-09T01:47:27.597Z,92.58
2023-02-09T01:48:27.615Z,92.79
2023-02-09T01:49:27.601Z,92.68
2023-02-09T01:50:27.577Z,92.68
2023-02-09T01:51:27.578Z,92.90
2023-02-09T01:52:27.618Z,92.90
2023-02-09T01:53:28.387Z,93.00
2023-02-09T01:54:27.540Z,93.11
2023-02-09T01:55:27.535Z,93.96
2023-02-09T01:56:27.627Z,94.17
2023-02-09T01:57:27.539Z,94.27
2023-02-09T01:58:27.527Z,93.96
2023-02-09T01:59:27.514Z,94.06
2023-02-09T02:00:27.498Z,94.64
2023-02-09T02:01:27.553Z,94.81
2023-02-09T02:02:28.499Z,94.17
2023-02-09T02:03:27.476Z,93.85
2023-02-09T02:04:27.481Z,93.74
2023-02-09T02:05:27.460Z,93.79
2023-02-09T02:06:27.457Z,94.10
2023-02-09T02:07:27.447Z,93.85
2023-02-09T02:08:27.448Z,94.21
2023-02-09T02:09:27.433Z,94.21
2023-02-09T02:10:27.432Z,94.00
2023-02-09T02:11:27.420Z,94.10
2023-02-09T02:12:27.418Z,94.17
2023-02-09T02:13:27.413Z,94.17
2023-02-09T02:14:27.397Z,94.17
2023-02-09T02:15:27.450Z,94.17
2023-02-09T02:16:27.380Z,94.06
2023-02-09T02:17:27.382Z,93.96
2023-02-09T02:18:27.364Z,94.17
2023-02-09T02:19:27.386Z,94.00
2023-02-09T02:20:27.347Z,94.10
2023-02-09T02:21:27.337Z,94.70
2023-02-09T02:22:27.329Z,93.96
2023-02-09T02:23:27.331Z,94.38
2023-02-09T02:24:27.344Z,94.00
2023-02-09T02:25:27.307Z,93.85
2023-02-09T02:26:27.881Z,93.85
2023-02-09T02:27:27.290Z,93.89
2023-02-09T02:28:27.377Z,93.68
2023-02-09T02:29:27.886Z,93.89
2023-02-09T02:30:27.316Z,93.79
2023-02-09T02:31:27.457Z,93.83
2023-02-09T02:32:29.899Z,94.10
2023-02-09T02:33:29.299Z,95.06
2023-02-09T02:34:27.235Z,94.95
2023-02-09T02:35:27.219Z,95.06
2023-02-09T02:36:27.263Z,95.38
2023-02-09T02:37:27.207Z,94.46
2023-02-09T02:38:27.198Z,93.83
2023-02-09T02:39:27.198Z,93.93
2023-02-09T02:40:27.181Z,93.93
2023-02-09T02:41:27.175Z,94.78
2023-02-09T02:42:27.167Z,95.42
2023-02-09T02:43:27.167Z,94.89
2023-02-09T02:44:27.158Z,94.36
2023-02-09T02:45:27.150Z,94.25
2023-02-09T02:46:27.194Z,95.10
2023-02-09T02:47:27.132Z,95.00
2023-02-09T02:48:27.122Z,94.85
2023-02-09T02:49:27.124Z,95.00
2023-02-09T02:50:27.205Z,94.78
2023-02-09T02:51:27.110Z,94.78
2023-02-09T02:52:27.103Z,94.78
2023-02-09T02:53:27.089Z,95.17
2023-02-09T02:54:27.092Z,94.25
2023-02-09T02:55:27.085Z,94.57
2023-02-09T02:56:27.068Z,94.36
2023-02-09T02:57:27.063Z,93.93
2023-02-09T02:58:27.047Z,94.57
2023-02-09T02:59:27.116Z,94.36
2023-02-09T03:00:27.036Z,94.36
2023-02-09T03:01:27.063Z,94.46
2023-02-09T03:02:27.023Z,95.00
2023-02-09T03:03:27.011Z,95.21
2023-02-09T03:04:27.020Z,95.42
2023-02-09T03:05:27.097Z,95.42
2023-02-09T03:06:26.993Z,95.42
2023-02-09T03:07:26.979Z,95.53
2023-02-09T03:08:26.997Z,95.10
2023-02-09T03:09:28.469Z,95.21
2023-02-09T03:10:26.959Z,94.78
2023-02-09T03:11:26.951Z,95.31
2023-02-09T03:12:26.950Z,95.84
2023-02-09T03:13:26.950Z,95.95
2023-02-09T03:14:26.933Z,95.84
2023-02-09T03:15:28.500Z,96.16
2023-02-09T03:16:26.960Z,96.27
2023-02-09T03:17:26.921Z,96.37
2023-02-09T03:18:28.460Z,96.23
2023-02-09T03:19:26.894Z,96.27
2023-02-09T03:20:26.885Z,95.53
2023-02-09T03:21:27.509Z,95.31
2023-02-09T03:22:26.889Z,95.53
2023-02-09T03:23:26.871Z,95.10
2023-02-09T03:24:26.855Z,94.68
2023-02-09T03:25:26.871Z,94.51
2023-02-09T03:26:26.852Z,94.19
2023-02-09T03:27:26.840Z,94.34
2023-02-09T03:28:26.847Z,94.23
2023-02-09T03:29:26.806Z,94.34
2023-02-09T03:30:26.830Z,93.59
2023-02-09T03:31:26.999Z,94.40
2023-02-09T03:32:26.797Z,94.76
2023-02-09T03:33:26.785Z,94.55
2023-02-09T03:34:26.793Z,94.55
2023-02-09T03:35:26.770Z,94.34
2023-02-09T03:36:28.457Z,94.55
2023-02-09T03:37:26.757Z,94.23
2023-02-09T03:38:26.751Z,94.23
2023-02-09T03:39:26.747Z,94.65
2023-02-09T03:40:26.737Z,94.55
2023-02-09T03:41:26.729Z,94.76
2023-02-09T03:42:27.469Z,94.34
2023-02-09T03:43:26.725Z,95.08
2023-02-09T03:44:26.715Z,95.40
2023-02-09T03:45:26.696Z,95.61
2023-02-09T03:46:26.740Z,94.34
2023-02-09T03:47:26.691Z,94.02
2023-02-09T03:48:26.702Z,94.02
2023-02-09T03:49:26.661Z,94.76
2023-02-09T03:50:26.645Z,94.23
2023-02-09T03:51:26.660Z,94.23
2023-02-09T03:52:28.389Z,94.02
2023-02-09T03:53:26.640Z,94.27
2023-02-09T03:54:26.625Z,94.17
2023-02-09T03:55:26.620Z,94.91
2023-02-09T03:56:26.607Z,94.65
2023-02-09T03:57:26.631Z,94.34
2023-02-09T03:58:26.591Z,94.45
2023-02-09T03:59:26.626Z,94.17
2023-02-09T04:00:26.628Z,94.02
2023-02-09T04:01:26.566Z,94.12
2023-02-09T04:02:26.590Z,94.12
2023-02-09T04:03:26.557Z,95.12
2023-02-09T04:04:26.546Z,94.87
2023-02-09T04:05:26.545Z,94.34
2023-02-09T04:06:26.542Z,95.29
2023-02-09T04:07:26.527Z,95.44
2023-02-09T04:08:26.525Z,94.87
2023-02-09T04:09:26.522Z,94.65
2023-02-09T04:10:26.533Z,94.98
2023-02-09T04:11:26.497Z,94.65
2023-02-09T04:12:26.504Z,94.87
2023-02-09T04:13:26.499Z,94.38
2023-02-09T04:14:26.486Z,94.38
2023-02-09T04:15:26.475Z,94.02
2023-02-09T04:16:26.530Z,94.38
2023-02-09T04:17:26.451Z,94.34
2023-02-09T04:18:26.477Z,94.02
2023-02-09T04:19:26.459Z,94.23
2023-02-09T04:20:26.434Z,94.27
2023-02-09T04:21:26.430Z,94.23
2023-02-09T04:22:26.422Z,93.96
2023-02-09T04:23:26.980Z,93.96
2023-02-09T04:24:26.429Z,93.80
2023-02-09T04:25:26.405Z,93.74
2023-02-09T04:26:26.398Z,93.85
2023-02-09T04:27:26.387Z,94.23
2023-02-09T04:28:26.456Z,94.38
2023-02-09T04:29:26.381Z,95.44
2023-02-09T04:30:26.365Z,95.29
2023-02-09T04:31:26.525Z,95.40
2023-02-09T04:32:26.354Z,95.40
2023-02-09T04:33:26.344Z,95.29
2023-02-09T04:34:26.336Z,95.08
2023-02-09T04:35:26.330Z,94.45
2023-02-09T04:36:26.325Z,94.45
2023-02-09T04:37:26.311Z,94.62
2023-02-09T04:38:26.310Z,94.76
2023-02-09T04:39:26.321Z,95.08
2023-02-09T04:40:26.293Z,95.51
2023-02-09T04:41:26.302Z,95.15
2023-02-09T04:42:26.291Z,95.15
2023-02-09T04:43:26.273Z,95.08
2023-02-09T04:44:26.281Z,95.78
2023-02-09T04:45:26.261Z,95.15
2023-02-09T04:46:26.259Z,95.47
2023-02-09T04:47:26.253Z,94.62
2023-02-09T04:48:26.243Z,94.34
2023-02-09T04:49:26.241Z,93.98
2023-02-09T04:50:26.243Z,94.34
2023-02-09T04:51:26.232Z,94.02
2023-02-09T04:52:26.220Z,94.29
2023-02-09T04:53:26.225Z,94.23
2023-02-09T04:54:26.200Z,93.91
2023-02-09T04:55:26.206Z,94.45
2023-02-09T04:56:26.202Z,94.93
2023-02-09T04:57:26.177Z,94.62
2023-02-09T04:58:27.894Z,94.40
2023-02-09T04:59:26.156Z,94.09
2023-02-09T05:00:26.153Z,94.51
2023-02-09T05:01:26.172Z,95.25
2023-02-09T05:02:27.137Z,95.78
2023-02-09T05:03:26.148Z,95.84
2023-02-09T05:04:26.127Z,96.06
2023-02-09T05:05:26.969Z,96.27
2023-02-09T05:06:26.117Z,96.48
2023-02-09T05:07:26.110Z,96.23
2023-02-09T05:08:26.132Z,95.80
2023-02-09T05:09:26.096Z,95.48
2023-02-09T05:10:26.098Z,94.64
2023-02-09T05:11:26.082Z,94.25
2023-02-09T05:12:26.072Z,94.36
2023-02-09T05:13:26.063Z,93.83
2023-02-09T05:14:26.057Z,93.72
2023-02-09T05:15:26.041Z,93.30
2023-02-09T05:16:26.109Z,93.23
2023-02-09T05:17:26.033Z,94.19
2023-02-09T05:18:26.896Z,94.40
2023-02-09T05:19:26.019Z,94.68
2023-02-09T05:20:26.014Z,95.31
2023-02-09T05:21:25.998Z,95.70
2023-02-09T05:22:26.002Z,95.53
2023-02-09T05:23:26.005Z,95.10
2023-02-09T05:24:25.979Z,94.36
2023-02-09T05:25:25.972Z,94.25
2023-02-09T05:26:25.963Z,94.15
2023-02-09T05:27:25.987Z,93.93
2023-02-09T05:28:26.071Z,93.76
2023-02-09T05:29:25.946Z,93.40
2023-02-09T05:30:27.903Z,93.23
2023-02-09T05:31:26.038Z,93.66
2023-02-09T05:32:26.047Z,93.34
2023-02-09T05:33:25.941Z,93.44
2023-02-09T05:34:25.923Z,92.17
2023-02-09T05:35:25.908Z,93.34
2023-02-09T05:36:25.903Z,94.19
2023-02-09T05:37:25.896Z,94.40
2023-02-09T05:38:25.891Z,94.19
2023-02-09T05:39:26.877Z,94.29
2023-02-09T05:40:26.414Z,94.09
2023-02-09T05:41:25.866Z,94.29
2023-02-09T05:42:26.474Z,94.29
2023-02-09T05:43:25.863Z,94.72
2023-02-09T05:44:25.848Z,94.82
2023-02-09T05:45:25.854Z,94.82
2023-02-09T05:46:25.869Z,94.72
2023-02-09T05:47:25.821Z,94.72
2023-02-09T05:48:26.481Z,94.62
2023-02-09T05:49:25.810Z,94.62
2023-02-09T05:50:25.812Z,94.82
2023-02-09T05:51:25.809Z,94.93
2023-02-09T05:52:25.785Z,94.51
2023-02-09T05:53:25.793Z,94.29
2023-02-09T05:54:25.773Z,94.29
2023-02-09T05:55:25.781Z,94.72
2023-02-09T05:56:28.395Z,93.66
2023-02-09T05:57:25.747Z,93.98
2023-02-09T05:58:25.745Z,93.76
2023-02-09T05:59:25.738Z,93.19
2023-02-09T06:00:25.774Z,93.34
2023-02-09T06:01:25.724Z,92.81
2023-02-09T06:02:25.765Z,92.96
2023-02-09T06:03:25.763Z,93.13
2023-02-09T06:04:25.702Z,93.34
2023-02-09T06:05:25.689Z,93.38
2023-02-09T06:06:26.473Z,93.34
2023-02-09T06:07:26.678Z,93.23
2023-02-09T06:08:25.680Z,93.70
2023-02-09T06:09:25.673Z,93.91
2023-02-09T06:10:25.658Z,93.34
2023-02-09T06:11:25.651Z,93.06
2023-02-09T06:12:25.683Z,93.38
2023-02-09T06:13:25.632Z,93.27
2023-02-09T06:14:26.482Z,93.38
2023-02-09T06:15:25.627Z,92.96
2023-02-09T06:16:25.612Z,92.64
2023-02-09T06:17:25.604Z,92.53
2023-02-09T06:18:25.601Z,93.06
2023-02-09T06:19:25.616Z,93.00
2023-02-09T06:20:25.585Z,93.85
2023-02-09T06:21:25.566Z,93.91
2023-02-09T06:22:26.571Z,93.91
2023-02-09T06:23:25.552Z,94.02
2023-02-09T06:24:25.559Z,93.80
2023-02-09T06:25:25.548Z,93.49
2023-02-09T06:26:25.545Z,93.80
2023-02-09T06:27:25.539Z,93.91
2023-02-09T06:28:25.574Z,93.85
2023-02-09T06:29:25.530Z,93.80
2023-02-09T06:30:25.507Z,93.59
2023-02-09T06:31:25.649Z,93.59
2023-02-09T06:32:26.492Z,93.21
2023-02-09T06:33:25.493Z,93.59
2023-02-09T06:34:26.985Z,93.70
2023-02-09T06:35:25.477Z,93.42
2023-02-09T06:36:25.480Z,93.80
2023-02-09T06:38:32.024Z,93.70
2023-02-09T06:39:32.022Z,93.70
2023-02-09T06:40:33.128Z,93.27
2023-02-09T06:41:33.105Z,93.63
2023-02-09T06:42:33.122Z,93.17
2023-02-09T06:43:33.117Z,93.21
2023-02-09T06:44:33.143Z,93.80
2023-02-09T06:45:33.096Z,93.91
2023-02-09T06:46:33.100Z,93.85
2023-02-09T06:47:33.085Z,93.80
2023-02-09T06:48:33.073Z,94.02
2023-02-09T06:49:33.080Z,94.23
2023-02-09T06:50:33.040Z,94.23
2023-02-09T06:51:33.024Z,94.09
2023-02-09T06:52:33.026Z,94.19
2023-02-09T06:53:33.028Z,93.76
2023-02-09T06:54:33.012Z,93.66
2023-02-09T06:55:33.003Z,93.62
2023-02-09T06:56:32.998Z,93.76
2023-02-09T06:57:32.996Z,93.34
2023-02-09T06:58:32.986Z,93.23
2023-02-09T06:59:32.998Z,94.29
2023-02-09T07:00:32.957Z,94.19
2023-02-09T07:01:32.992Z,94.25
2023-02-09T07:02:32.957Z,94.57
2023-02-09T07:03:32.937Z,94.15
2023-02-09T07:04:34.774Z,93.93
2023-02-09T07:05:32.921Z,93.62
2023-02-09T07:06:32.924Z,93.51
2023-02-09T07:07:32.931Z,93.02
2023-02-09T07:08:32.910Z,92.77
2023-02-09T07:09:32.904Z,92.07
2023-02-09T07:10:32.883Z,92.24
2023-02-09T07:11:32.885Z,92.38
2023-02-09T07:12:32.877Z,92.60
2023-02-09T07:13:32.874Z,92.81
2023-02-09T07:14:32.864Z,93.02
2023-02-09T07:15:33.877Z,92.98
2023-02-09T07:16:32.853Z,92.77
2023-02-09T07:17:32.829Z,93.57
2023-02-09T07:18:32.831Z,93.79
2023-02-09T07:19:32.824Z,93.80
2023-02-09T07:20:33.704Z,93.60
2023-02-09T07:21:32.801Z,94.23
2023-02-09T07:22:33.850Z,93.98
2023-02-09T07:23:32.778Z,93.83
2023-02-09T07:24:32.775Z,94.68
2023-02-09T07:25:33.765Z,94.00
2023-02-09T07:26:35.685Z,93.96
2023-02-09T07:27:32.759Z,93.70
2023-02-09T07:28:35.296Z,93.49
2023-02-09T07:29:32.755Z,93.66
2023-02-09T07:30:32.754Z,93.13
2023-02-09T07:31:32.878Z,93.30
2023-02-09T07:32:32.714Z,93.34
2023-02-09T07:33:32.713Z,92.24
2023-02-09T07:34:32.701Z,92.35
2023-02-09T07:35:32.694Z,91.78
2023-02-09T07:36:32.684Z,92.31
2023-02-09T07:37:32.689Z,91.74
2023-02-09T07:38:32.666Z,90.79
2023-02-09T07:39:32.732Z,90.79
2023-02-09T07:40:32.648Z,89.73
2023-02-09T07:41:32.644Z,89.73
2023-02-09T07:42:32.657Z,89.73
2023-02-09T07:43:32.627Z,89.73
2023-02-09T07:44:32.616Z,89.31
2023-02-09T07:45:32.612Z,89.10
2023-02-09T07:46:32.693Z,88.26
2023-02-09T07:47:32.596Z,89.27
2023-02-09T07:48:32.578Z,89.06
2023-02-09T07:49:32.578Z,89.12
2023-02-09T07:50:32.568Z,89.44
2023-02-09T07:51:34.776Z,89.65
2023-02-09T07:52:32.557Z,87.48
2023-02-09T07:53:32.539Z,87.33
2023-02-09T07:54:32.542Z,88.60
2023-02-09T07:55:32.523Z,87.86
2023-02-09T07:56:33.199Z,88.18
2023-02-09T07:57:32.514Z,89.12
2023-02-09T07:58:34.261Z,87.44
2023-02-09T07:59:32.506Z,87.50
2023-02-09T08:00:32.526Z,87.61
2023-02-09T08:01:32.508Z,86.66
2023-02-09T08:02:32.484Z,85.43
2023-02-09T08:03:36.190Z,86.21
2023-02-09T08:04:32.467Z,86.95
2023-02-09T08:05:32.452Z,87.27
2023-02-09T08:06:41.550Z,87.48
2023-02-09T08:07:34.480Z,87.37
2023-02-09T08:08:32.434Z,88.43
2023-02-09T08:09:32.420Z,87.58
2023-02-09T08:10:32.415Z,89.02
2023-02-09T08:11:32.411Z,88.98
2023-02-09T08:12:32.780Z,86.38
2023-02-09T08:13:32.395Z,87.16
2023-02-09T08:14:32.386Z,87.23
2023-02-09T08:15:32.376Z,86.63
2023-02-09T08:16:33.343Z,88.21
2023-02-09T08:17:32.364Z,89.02
2023-02-09T08:18:32.389Z,88.92
2023-02-09T08:19:32.357Z,87.23
2023-02-09T08:20:32.361Z,87.16
2023-02-09T08:21:32.348Z,87.05
2023-02-09T08:22:32.329Z,87.16
2023-02-09T08:23:32.378Z,87.58
2023-02-09T08:24:32.311Z,88.53
2023-02-09T08:25:32.309Z,88.21
2023-02-09T08:26:33.197Z,87.23
2023-02-09T08:27:32.291Z,87.12
2023-02-09T08:28:43.093Z,87.27
2023-02-09T08:29:34.292Z,87.05
2023-02-09T08:30:32.270Z,87.37
2023-02-09T08:31:32.343Z,87.37
2023-02-09T08:32:32.250Z,88.07
2023-02-09T08:33:32.248Z,88.39
2023-02-09T08:34:32.251Z,88.28
2023-02-09T08:35:34.194Z,86.80
2023-02-09T08:36:32.219Z,86.74
2023-02-09T08:37:32.218Z,87.37
2023-02-09T08:38:32.212Z,86.63
2023-02-09T08:39:32.187Z,86.70
2023-02-09T08:40:32.181Z,87.27
2023-02-09T08:41:32.216Z,87.27
2023-02-09T08:42:32.177Z,86.95
2023-02-09T08:43:32.159Z,88.07
2023-02-09T08:44:32.184Z,87.12
2023-02-09T08:45:32.276Z,86.59
2023-02-09T08:46:32.324Z,86.49
2023-02-09T08:47:32.696Z,86.70
2023-02-09T08:48:33.710Z,87.40
2023-02-09T08:49:32.146Z,87.12
2023-02-09T08:50:33.781Z,87.08
2023-02-09T08:51:32.102Z,87.08
2023-02-09T08:52:32.098Z,87.04
2023-02-09T08:53:32.092Z,87.93
2023-02-09T08:54:32.078Z,88.41
2023-02-09T08:55:33.076Z,87.21
2023-02-09T08:56:32.072Z,86.72
2023-02-09T08:57:43.639Z,86.20
2023-02-09T08:58:34.070Z,87.11
2023-02-09T08:59:32.045Z,87.15
2023-02-09T09:00:32.033Z,87.32
2023-02-09T09:01:32.741Z,86.47
2023-02-09T09:02:32.025Z,86.79
2023-02-09T09:04:38.796Z,86.90
2023-02-09T09:05:38.828Z,87.21
2023-02-09T09:06:39.879Z,86.65
2023-02-09T09:07:41.659Z,87.18
2023-02-09T09:08:41.752Z,86.51
2023-02-09T09:09:39.867Z,85.87
2023-02-09T09:10:39.843Z,85.66
2023-02-09T09:11:39.882Z,85.70
2023-02-09T09:12:39.834Z,85.35
2023-02-09T09:13:39.827Z,85.55
2023-02-09T09:14:40.662Z,85.66
2023-02-09T09:15:40.803Z,85.77
2023-02-09T09:16:39.935Z,86.71
2023-02-09T09:17:39.794Z,86.25
2023-02-09T09:18:39.796Z,85.62
2023-02-09T09:19:39.778Z,84.99
2023-02-09T09:20:39.792Z,84.25
2023-02-09T09:21:39.785Z,84.57
2023-02-09T09:22:39.747Z,84.89
2023-02-09T09:23:40.189Z,84.84
2023-02-09T09:24:39.732Z,84.57
2023-02-09T09:25:39.737Z,84.01
2023-02-09T09:26:39.719Z,82.11
2023-02-09T09:27:40.711Z,80.64
2023-02-09T09:28:41.689Z,80.33
2023-02-09T09:29:39.760Z,80.64
2023-02-09T09:30:40.701Z,80.50
2023-02-09T09:31:39.773Z,80.60
2023-02-09T09:32:39.750Z,79.45
2023-02-09T09:33:39.661Z,79.45
2023-02-09T09:34:39.649Z,80.08
2023-02-09T09:35:39.655Z,79.52
2023-02-09T09:36:40.168Z,80.15
2023-02-09T09:37:39.632Z,81.16
2023-02-09T09:38:39.621Z,82.00
2023-02-09T09:39:40.173Z,81.90
2023-02-09T09:40:39.612Z,80.91
2023-02-09T09:41:40.178Z,80.18
2023-02-09T09:42:39.600Z,79.03
2023-02-09T09:43:39.830Z,79.66
2023-02-09T09:44:40.564Z,78.39
2023-02-09T09:45:39.623Z,79.10
2023-02-09T09:46:39.700Z,79.41
2023-02-09T09:47:39.555Z,79.55
2023-02-09T09:48:39.557Z,77.31
2023-02-09T09:49:39.568Z,77.31
2023-02-09T09:50:39.536Z,75.95
2023-02-09T09:51:39.519Z,75.18
2023-02-09T09:52:39.513Z,75.18
2023-02-09T09:53:39.507Z,75.92
2023-02-09T09:54:41.241Z,75.81
2023-02-09T09:55:40.172Z,76.43
2023-02-09T09:57:45.966Z,75.18
2023-02-09T09:58:45.962Z,75.39
2023-02-09T09:59:47.057Z,75.78
2023-02-09T10:00:47.045Z,75.04
2023-02-09T10:01:47.038Z,75.25
2023-02-09T10:02:47.011Z,74.80
2023-02-09T10:03:47.026Z,74.38
2023-02-09T10:04:47.022Z,73.93
2023-02-09T10:05:47.424Z,74.03
2023-02-09T10:06:47.006Z,73.40
2023-02-09T10:07:46.989Z,73.50
2023-02-09T10:08:46.978Z,73.30
2023-02-09T10:09:46.973Z,72.88
2023-02-09T10:10:47.290Z,72.98
2023-02-09T10:11:46.954Z,72.95
2023-02-09T10:12:46.953Z,72.42
2023-02-09T10:13:46.946Z,72.64
2023-02-09T10:14:46.946Z,72.74
2023-02-09T10:15:48.641Z,71.90
2023-02-09T10:16:46.989Z,71.90
2023-02-09T10:17:46.921Z,71.56
2023-02-09T10:18:46.911Z,71.56
2023-02-09T10:19:46.896Z,71.45
2023-02-09T10:20:46.917Z,70.93
2023-02-09T10:21:46.882Z,70.83
2023-02-09T10:22:46.891Z,69.88
2023-02-09T10:23:46.870Z,70.83
2023-02-09T10:24:46.863Z,69.46
2023-02-09T10:25:47.870Z,69.57
2023-02-09T10:26:46.860Z,69.15
2023-02-09T10:27:46.840Z,69.26
2023-02-09T10:28:46.828Z,68.84
2023-02-09T10:29:46.815Z,68.91
2023-02-09T10:30:46.975Z,68.60
2023-02-09T10:31:46.984Z,68.38
2023-02-09T10:32:47.633Z,68.18
2023-02-09T10:33:46.840Z,68.35
2023-02-09T10:34:46.787Z,68.28
2023-02-09T10:35:47.173Z,67.94
2023-02-09T10:36:46.763Z,67.41
2023-02-09T10:37:46.748Z,67.52
2023-02-09T10:38:46.749Z,67.83
2023-02-09T10:39:46.740Z,67.31
2023-02-09T10:40:46.728Z,67.59
2023-02-09T10:41:46.714Z,67.62
2023-02-09T10:42:46.713Z,67.69
2023-02-09T10:43:46.712Z,67.07
2023-02-09T10:44:46.692Z,66.44
2023-02-09T10:45:48.168Z,66.34
2023-02-09T10:46:46.729Z,66.44
2023-02-09T10:47:46.663Z,66.24
2023-02-09T10:48:46.660Z,66.34
2023-02-09T10:49:46.662Z,66.13
2023-02-09T10:50:48.206Z,65.81
2023-02-09T10:51:46.638Z,66.13
2023-02-09T10:52:50.130Z,65.68
2023-02-09T10:53:46.611Z,66.52
2023-02-09T10:54:46.824Z,66.52
2023-02-09T10:55:47.550Z,66.31
2023-02-09T10:56:48.220Z,66.00
2023-02-09T10:57:46.581Z,66.62
2023-02-09T10:58:46.577Z,66.17
2023-02-09T10:59:46.570Z,66.17
2023-02-09T11:00:49.132Z,64.29
2023-02-09T11:01:47.239Z,64.71
2023-02-09T11:02:46.545Z,65.34
2023-02-09T11:03:46.553Z,64.82
2023-02-09T11:04:46.577Z,65.13
2023-02-09T11:05:47.639Z,65.55
2023-02-09T11:06:47.140Z,64.92
2023-02-09T11:07:46.510Z,65.13
2023-02-09T11:08:46.530Z,64.71
2023-02-09T11:09:46.498Z,64.50
2023-02-09T11:10:46.520Z,64.40
2023-02-09T11:11:46.478Z,64.50
2023-02-09T11:12:47.585Z,64.71
2023-02-09T11:13:46.470Z,64.61
2023-02-09T11:14:46.526Z,64.40
2023-02-09T11:15:46.834Z,64.16
2023-02-09T11:16:46.439Z,63.85
2023-02-09T11:17:46.441Z,63.12
2023-02-09T11:18:46.441Z,63.64
2023-02-09T11:19:48.147Z,62.98
2023-02-09T11:20:47.227Z,63.30
2023-02-09T11:21:46.419Z,62.98
2023-02-09T11:22:46.407Z,62.98
2023-02-09T11:23:46.399Z,62.98
2023-02-09T11:24:46.404Z,62.67
2023-02-09T11:25:46.782Z,63.30
2023-02-09T11:26:46.411Z,62.67
2023-02-09T11:27:46.401Z,62.77
2023-02-09T11:28:46.363Z,62.26
2023-02-09T11:29:46.392Z,62.36
2023-02-09T11:30:46.784Z,61.81
2023-02-09T11:31:46.468Z,62.12
2023-02-09T11:32:47.144Z,60.97
2023-02-09T11:33:47.187Z,61.29
2023-02-09T11:34:46.306Z,61.08
2023-02-09T11:35:46.304Z,61.18
2023-02-09T11:36:46.348Z,60.85
2023-02-09T11:37:46.283Z,61.29
2023-02-09T11:38:46.275Z,61.40
2023-02-09T11:39:46.282Z,61.08
2023-02-09T11:40:46.553Z,61.05
2023-02-09T11:41:47.222Z,60.25
2023-02-09T11:42:46.266Z,60.97
2023-02-09T11:43:46.232Z,61.16
2023-02-09T11:44:46.238Z,59.80
2023-02-09T11:45:46.225Z,59.91
2023-02-09T11:46:46.321Z,59.70
2023-02-09T11:47:46.208Z,60.04
2023-02-09T11:48:46.204Z,59.93
2023-02-09T11:49:46.189Z,60.32
2023-02-09T11:50:46.580Z,61.05
2023-02-09T11:51:46.741Z,59.59
2023-02-09T11:52:46.187Z,59.67
2023-02-09T11:53:46.729Z,59.80
2023-02-09T11:54:46.162Z,59.59
2023-02-09T11:55:46.149Z,60.09
2023-02-09T11:56:46.174Z,59.99
2023-02-09T11:57:46.150Z,59.85
2023-02-09T11:58:46.137Z,59.44
2023-02-09T11:59:46.132Z,59.46
2023-02-09T12:00:56.048Z,59.64
2023-02-09T12:01:48.723Z,57.77
2023-02-09T12:02:46.271Z,59.02
2023-02-09T12:03:46.091Z,59.33
2023-02-09T12:04:46.095Z,59.33
2023-02-09T12:05:46.071Z,59.30
2023-02-09T12:06:46.089Z,59.72
2023-02-09T12:07:46.077Z,59.02
2023-02-09T12:08:46.144Z,58.47
2023-02-09T12:09:46.052Z,58.06
2023-02-09T12:10:46.323Z,58.37
2023-02-09T12:11:46.024Z,58.89
2023-02-09T12:12:46.013Z,58.58
2023-02-09T12:13:46.045Z,58.47
2023-02-09T12:14:46.020Z,58.58
2023-02-09T12:15:46.045Z,59.09
2023-02-09T12:16:46.000Z,58.37
2023-02-09T12:17:45.979Z,58.16
2023-02-09T12:18:45.986Z,57.95
2023-02-09T12:19:46.647Z,58.68
2023-02-09T12:20:47.984Z,59.07
2023-02-09T12:21:45.953Z,57.90
2023-02-09T12:22:45.941Z,58.11
2023-02-09T12:23:45.940Z,57.90
2023-02-09T12:24:45.936Z,58.00
2023-02-09T12:25:45.959Z,57.07
2023-02-09T12:26:45.924Z,57.07
2023-02-09T12:27:45.902Z,57.79
2023-02-09T12:28:45.906Z,57.07
2023-02-09T12:29:45.881Z,56.96
2023-02-09T12:30:46.176Z,57.59
2023-02-09T12:31:46.470Z,56.86
2023-02-09T12:32:46.890Z,56.93
2023-02-09T12:33:45.846Z,56.73
2023-02-09T12:34:45.871Z,57.59
2023-02-09T12:35:45.834Z,56.93
2023-02-09T12:36:45.833Z,56.76
2023-02-09T12:37:45.818Z,57.59
2023-02-09T12:38:49.358Z,57.04
2023-02-09T12:39:46.803Z,57.69
2023-02-09T12:40:46.167Z,57.07
2023-02-09T12:41:45.805Z,56.96
2023-02-09T12:42:45.779Z,57.48
2023-02-09T12:43:45.772Z,56.96
2023-02-09T12:44:45.764Z,57.92
2023-02-09T12:45:46.110Z,57.90
2023-02-09T12:46:45.749Z,57.71
2023-02-09T12:47:45.732Z,58.42
2023-02-09T12:48:45.762Z,57.79
2023-02-09T12:49:45.718Z,58.00
2023-02-09T12:50:45.708Z,57.59
2023-02-09T12:51:45.807Z,57.38
2023-02-09T12:52:45.687Z,57.69
2023-02-09T12:53:45.711Z,56.96
2023-02-09T12:54:45.672Z,57.14
2023-02-09T12:55:46.014Z,58.42
2023-02-09T12:56:45.662Z,57.79
2023-02-09T12:57:47.476Z,56.83
2023-02-09T12:58:46.651Z,57.04
2023-02-09T12:59:46.150Z,57.04
2023-02-09T13:00:45.656Z,57.24
2023-02-09T13:01:45.625Z,56.73
2023-02-09T13:02:45.602Z,57.14
2023-02-09T13:03:45.685Z,57.12
2023-02-09T13:04:46.662Z,57.32
2023-02-09T13:05:45.984Z,57.22
2023-02-09T13:06:45.579Z,57.64
2023-02-09T13:07:45.572Z,57.32
2023-02-09T13:08:45.574Z,56.70
2023-02-09T13:09:45.555Z,56.91
2023-02-09T13:10:45.554Z,56.39
2023-02-09T13:11:45.545Z,56.91
2023-02-09T13:12:45.540Z,56.91
2023-02-09T13:13:45.545Z,57.43
2023-02-09T13:14:45.515Z,56.88
2023-02-09T13:15:45.866Z,56.16
2023-02-09T13:16:45.541Z,56.57
2023-02-09T13:17:45.493Z,56.88
2023-02-09T13:18:45.513Z,56.78
2023-02-09T13:19:47.910Z,57.30
2023-02-09T13:20:46.477Z,57.20
2023-02-09T13:21:45.471Z,56.99
2023-02-09T13:22:45.461Z,56.65
2023-02-09T13:23:45.459Z,56.65
2023-02-09T13:24:47.161Z,58.21
2023-02-09T13:25:45.715Z,58.00
2023-02-09T13:26:46.420Z,58.00
2023-02-09T13:27:45.422Z,57.07
2023-02-09T13:28:46.239Z,56.21
2023-02-09T13:29:45.416Z,56.34
2023-02-09T13:30:45.423Z,56.76
2023-02-09T13:31:45.448Z,56.37
2023-02-09T13:32:45.382Z,56.88
2023-02-09T13:33:45.376Z,56.86
2023-02-09T13:34:45.367Z,56.88
2023-02-09T13:35:45.737Z,56.88
2023-02-09T13:36:45.362Z,56.34
2023-02-09T13:37:45.350Z,57.51
2023-02-09T13:38:45.329Z,56.99
2023-02-09T13:39:46.167Z,57.61
2023-02-09T13:40:45.313Z,57.53
2023-02-09T13:41:45.381Z,57.82
2023-02-09T13:42:45.302Z,57.51
2023-02-09T13:43:45.304Z,56.78
2023-02-09T13:44:45.296Z,56.78
2023-02-09T13:45:45.741Z,57.40
2023-02-09T13:46:46.268Z,57.20
2023-02-09T13:47:45.265Z,57.74
2023-02-09T13:48:45.278Z,57.74
2023-02-09T13:49:45.241Z,57.64
2023-02-09T13:50:45.235Z,57.95
2023-02-09T13:51:45.231Z,57.53
2023-02-09T13:52:45.284Z,57.71
2023-02-09T13:53:45.214Z,57.51
2023-02-09T13:54:45.249Z,57.51
2023-02-09T13:55:45.554Z,58.23
2023-02-09T13:56:45.190Z,57.43
2023-02-09T13:57:45.771Z,58.57
2023-02-09T13:58:45.182Z,57.53
2023-02-09T13:59:45.188Z,57.51
2023-02-09T14:00:45.181Z,57.51
2023-02-09T14:01:45.148Z,57.71
2023-02-09T14:02:45.169Z,57.71